Terminal Aerodrome Forecast
Issued by NWS Sioux Falls, SD

Home | Current Version | Previous Version | Text Only | Print | Product List | Glossary On
Versions: 1 2 3 4 5 6 7 8 9 10 11 12 13 14 15
000
FTUS43 KFSD 041735
TAFHON
TAF
KHON 041735Z 0418/0518 12012KT P6SM BKN110
     FM041900 16012G18KT P6SM SCT120
     FM050300 14011KT P6SM SCT250
     FM051500 17012KT P6SM SCT090 BKN150=

USA.gov is the U.S. government's official web portal to all federal, state and local government web resources and services.